METARs

EEEI - Ämari Air Base

EEEI 221350Z 24015G25KT 9999 -RA SCT009 BKN013 BKN026 11/09 Q099

EEKA - Kärdla

EEKA 221450Z 27009KT 9999 RA SCT011 BKN018 11/09 Q1002

EEKE - Kuressaare

EEKE 221750Z AUTO VRB02KT 9999NDV -RA BKN035 BKN042 12/10 Q1007

EEPU - Pärnu

EEPU 221250Z 22026G37KT 9999 BKN018 13/09 Q1000

EETN - Lennart Meri Tallinn

EETN 221750Z 25017KT 9999 FEW018CB 11/09 Q1003 TEMPO 25020G30KT

EETU - Tartu

EETU 221750Z AUTO 23014KT 190V260 9999 BKN092/// 13/06 Q1006

Sign In

ATC Booking

currently no ATC Bookings...